Time;durP1;ratioP1;P1;durP2;ratioP2;P2;SDS_P1;SDS_P2;PMS_P1;PMS_P2;Temp;Humidity;BMP_temperature;BMP_pressure;BME280_temperature;BME280_humidity;BME280_pressure;Samples;Min_cycle;Max_cycle;Signal;HPM_P1;HPM_P2
2022/12/06 00:01:07;;;;;;;7.13;3.70;;;;;;;;;;5029040;28;20444;-58
2022/12/06 00:03:33;;;;;;;8.30;4.50;;;;;;;;;;5029944;28;20018;-57
2022/12/06 00:05:59;;;;;;;7.50;4.30;;;;;;;;;;5030157;28;20381;-59
2022/12/06 00:08:24;;;;;;;8.25;3.70;;;;;;;;;;5026087;28;20542;-58
2022/12/06 00:10:50;;;;;;;7.07;3.37;;;;;;;;;;5028943;28;20029;-60
2022/12/06 00:13:15;;;;;;;7.00;3.77;;;;;;;;;;5029550;28;20049;-58
2022/12/06 00:15:40;;;;;;;8.33;4.23;;;;;;;;;;5028957;28;20056;-58
2022/12/06 00:18:05;;;;;;;8.60;4.50;;;;;;;;;;5027401;28;20025;-58
2022/12/06 00:20:30;;;;;;;8.30;3.83;;;;;;;;;;5035575;28;20029;-58
2022/12/06 00:22:56;;;;;;;7.07;3.83;;;;;;;;;;5034807;28;20459;-58
2022/12/06 00:25:21;;;;;;;9.27;3.50;;;;;;;;;;5036563;28;20116;-58
2022/12/06 00:27:46;;;;;;;7.70;4.20;;;;;;;;;;5035004;28;20100;-60
2022/12/06 00:30:11;;;;;;;8.43;4.40;;;;;;;;;;5019393;28;20057;-58
2022/12/06 00:32:37;;;;;;;9.47;4.27;;;;;;;;;;5030382;28;20393;-57
2022/12/06 00:35:02;;;;;;;7.67;4.17;;;;;;;;;;5035383;28;20452;-57
2022/12/06 00:37:27;;;;;;;7.65;3.72;;;;;;;;;;5035239;28;20076;-62
2022/12/06 00:39:52;;;;;;;7.37;3.50;;;;;;;;;;5032511;28;20017;-58
2022/12/06 00:42:17;;;;;;;9.20;3.77;;;;;;;;;;5032705;28;20075;-58
2022/12/06 00:44:43;;;;;;;7.40;3.43;;;;;;;;;;5035308;28;20376;-57
2022/12/06 00:47:08;;;;;;;8.77;4.10;;;;;;;;;;5033594;28;20032;-58
2022/12/06 00:49:33;;;;;;;7.10;4.10;;;;;;;;;;5030474;28;20025;-58
2022/12/06 00:51:58;;;;;;;8.93;4.10;;;;;;;;;;5036103;28;20099;-57
2022/12/06 00:54:23;;;;;;;8.53;4.17;;;;;;;;;;5035012;28;20430;-57
2022/12/06 00:56:49;;;;;;;9.27;4.50;;;;;;;;;;5035154;28;20048;-57
2022/12/06 00:59:14;;;;;;;8.20;4.20;;;;;;;;;;5034657;28;20104;-57
2022/12/06 01:01:39;;;;;;;8.13;4.17;;;;;;;;;;5030974;28;20551;-56
2022/12/06 01:04:05;;;;;;;9.05;4.13;;;;;;;;;;5034939;28;20025;-57
2022/12/06 01:06:31;;;;;;;7.95;3.60;;;;;;;;;;5035313;28;20030;-57
2022/12/06 01:08:58;;;;;;;8.55;4.30;;;;;;;;;;5034598;28;20104;-57
2022/12/06 01:11:24;;;;;;;7.28;3.80;;;;;;;;;;5031597;28;20029;-57
2022/12/06 01:13:50;;;;;;;7.07;3.72;;;;;;;;;;5032532;28;20025;-57
2022/12/06 01:16:16;;;;;;;7.78;3.67;;;;;;;;;;5034942;28;20029;-57
2022/12/06 01:18:42;;;;;;;8.98;4.15;;;;;;;;;;5033717;28;20033;-57
2022/12/06 01:21:09;;;;;;;6.65;3.00;;;;;;;;;;5032557;28;20037;-57
2022/12/06 01:23:35;;;;;;;7.90;3.88;;;;;;;;;;5019969;28;20021;-57
2022/12/06 01:26:00;;;;;;;7.55;3.65;;;;;;;;;;5034391;28;20037;-57
2022/12/06 01:28:25;;;;;;;7.20;3.60;;;;;;;;;;5034642;28;20429;-58
2022/12/06 01:30:50;;;;;;;6.60;2.90;;;;;;;;;;5030810;28;20436;-58
2022/12/06 01:33:15;;;;;;;7.30;3.67;;;;;;;;;;5026203;28;20108;-58
2022/12/06 01:35:41;;;;;;;7.00;3.30;;;;;;;;;;5031528;28;20408;-58
2022/12/06 01:38:06;;;;;;;7.32;3.65;;;;;;;;;;5031542;28;20460;-58
2022/12/06 01:40:36;;;;;;;7.80;4.28;;;;;;;;;;5029777;28;20510;-58
2022/12/06 01:43:01;;;;;;;8.07;3.72;;;;;;;;;;5029765;28;20336;-58
2022/12/06 01:45:26;;;;;;;8.80;3.63;;;;;;;;;;5029623;28;20529;-58
2022/12/06 01:47:51;;;;;;;7.87;4.00;;;;;;;;;;5029125;28;20029;-58
2022/12/06 01:50:19;;;;;;;9.13;4.07;;;;;;;;;;5029741;28;20037;-58
2022/12/06 01:53:04;;;;;;;7.63;4.15;;;;;;;;;;5029000;28;20025;-58
2022/12/06 01:55:31;;;;;;;7.28;3.28;;;;;;;;;;5031043;28;20030;-58
2022/12/06 01:57:59;;;;;;;7.20;3.35;;;;;;;;;;5029315;28;20447;-58
2022/12/06 02:00:24;;;;;;;8.52;4.38;;;;;;;;;;5016229;28;20049;-58
2022/12/06 02:02:49;;;;;;;9.03;3.93;;;;;;;;;;5029832;28;20045;-58
2022/12/06 02:05:15;;;;;;;10.30;5.50;;;;;;;;;;5029174;28;20025;-58
2022/12/06 02:07:41;;;;;;;9.45;4.47;;;;;;;;;;5030659;28;20044;-58
2022/12/06 02:10:06;;;;;;;9.18;4.20;;;;;;;;;;5029226;28;20025;-58
2022/12/06 02:12:31;;;;;;;11.27;4.40;;;;;;;;;;5030902;28;20107;-58
2022/12/06 02:14:58;;;;;;;10.23;4.97;;;;;;;;;;5028816;28;20049;-58
2022/12/06 02:17:23;;;;;;;7.43;3.67;;;;;;;;;;5030187;28;20535;-59
2022/12/06 02:19:48;;;;;;;8.07;3.80;;;;;;;;;;5030298;28;20021;-58
2022/12/06 02:22:29;;;;;;;7.97;4.40;;;;;;;;;;5031516;28;20021;-58
2022/12/06 02:24:57;;;;;;;8.93;4.50;;;;;;;;;;5029297;28;20017;-58
2022/12/06 02:27:26;;;;;;;10.35;4.78;;;;;;;;;;5030838;28;20100;-58
2022/12/06 02:30:07;;;;;;;8.63;4.32;;;;;;;;;;5030691;28;20029;-56
2022/12/06 02:32:38;;;;;;;8.88;4.20;;;;;;;;;;5030513;28;20022;-58
2022/12/06 02:35:18;;;;;;;8.45;4.00;;;;;;;;;;5026340;28;20112;-57
2022/12/06 02:37:49;;;;;;;10.73;4.63;;;;;;;;;;5030417;28;20025;-58
2022/12/06 02:40:16;;;;;;;9.57;4.60;;;;;;;;;;5031472;28;20067;-57
2022/12/06 02:42:44;;;;;;;10.85;4.53;;;;;;;;;;5029456;28;20465;-58
2022/12/06 02:45:11;;;;;;;8.35;3.75;;;;;;;;;;5026363;28;20094;-57
2022/12/06 02:47:36;;;;;;;;;;;;;;;;;;5031259;28;20041;-57
2022/12/06 02:50:03;;;;;;;9.57;4.30;;;;;;;;;;5030316;28;19913;-57
2022/12/06 02:52:30;;;;;;;11.25;5.20;;;;;;;;;;5030834;28;20025;-57
2022/12/06 02:54:57;;;;;;;10.18;4.18;;;;;;;;;;5029022;28;20027;-57
2022/12/06 02:57:31;;;;;;;10.85;4.47;;;;;;;;;;5029071;28;20507;-57
2022/12/06 02:59:57;;;;;;;9.32;4.10;;;;;;;;;;5030787;28;20350;-57
2022/12/06 03:02:22;;;;;;;11.50;5.03;;;;;;;;;;5030360;28;20036;-58
2022/12/06 03:05:13;;;;;;;11.10;5.00;;;;;;;;;;5028610;28;20105;-58
2022/12/06 03:07:44;;;;;;;9.85;3.72;;;;;;;;;;5029411;28;20032;-58
2022/12/06 03:10:17;;;;;;;9.93;4.43;;;;;;;;;;5025023;28;20030;-58
2022/12/06 03:12:54;;;;;;;9.75;4.90;;;;;;;;;;5023908;28;20506;-58
2022/12/06 03:15:25;;;;;;;10.23;5.03;;;;;;;;;;5027837;28;20127;-58
2022/12/06 03:17:57;;;;;;;9.57;4.30;;;;;;;;;;5028235;28;20354;-58
2022/12/06 03:20:27;;;;;;;9.57;4.68;;;;;;;;;;5029208;28;20053;-58
2022/12/06 03:22:58;;;;;;;11.73;4.57;;;;;;;;;;5028676;28;20104;-58
2022/12/06 03:25:24;;;;;;;10.38;5.03;;;;;;;;;;5028006;28;20029;-58
2022/12/06 03:27:51;;;;;;;10.52;4.88;;;;;;;;;;5024205;28;20018;-57
2022/12/06 03:30:16;;;;;;;9.70;5.28;;;;;;;;;;5026377;28;20048;-57
2022/12/06 03:32:44;;;;;;;10.03;5.07;;;;;;;;;;5010710;28;20101;-57
2022/12/06 03:35:11;;;;;;;10.30;4.90;;;;;;;;;;5020283;28;20519;-57
2022/12/06 03:37:36;;;;;;;;;;;;;;;;;;5027765;28;20029;-58
2022/12/06 03:40:08;;;;;;;10.93;4.78;;;;;;;;;;5028459;28;19963;-57
2022/12/06 03:42:34;;;;;;;11.40;4.95;;;;;;;;;;5026485;28;20017;-58
2022/12/06 03:44:59;;;;;;;12.77;5.20;;;;;;;;;;5030497;28;20080;-57
2022/12/06 03:47:54;;;;;;;11.38;5.10;;;;;;;;;;5028281;28;20272;-57
2022/12/06 03:50:21;;;;;;;11.63;5.55;;;;;;;;;;5028131;28;20056;-57
2022/12/06 03:52:48;;;;;;;11.23;4.82;;;;;;;;;;5030353;28;20029;-57
2022/12/06 03:55:14;;;;;;;13.70;5.57;;;;;;;;;;5029992;28;20411;-57
2022/12/06 03:57:39;;;;;;;13.87;6.20;;;;;;;;;;5030055;28;20037;-57
2022/12/06 04:00:04;;;;;;;10.67;5.40;;;;;;;;;;5025462;28;20119;-57
2022/12/06 04:02:30;;;;;;;10.70;5.07;;;;;;;;;;5030005;28;20091;-57
2022/12/06 04:04:55;;;;;;;12.20;5.47;;;;;;;;;;5028619;28;20013;-57
2022/12/06 04:07:21;;;;;;;10.67;5.53;;;;;;;;;;5030280;28;20059;-58
2022/12/06 04:10:01;;;;;;;11.60;5.43;;;;;;;;;;5026255;28;20040;-58
2022/12/06 04:15:10;;;;;;;9.15;4.65;;;;;;;;;;5027906;28;20376;-58
2022/12/06 04:20:20;;;;;;;11.02;5.07;;;;;;;;;;5025922;28;20115;-58
2022/12/06 04:23:03;;;;;;;11.17;5.50;;;;;;;;;;5029746;28;20049;-58
2022/12/06 04:25:37;;;;;;;10.77;4.90;;;;;;;;;;5029173;28;20060;-58
2022/12/06 04:38:59;;;;;;;9.50;5.10;;;;;;;;;;5027295;28;20083;-57
2022/12/06 04:44:08;;;;;;;11.13;5.40;;;;;;;;;;5039274;28;20031;-58
2022/12/06 04:46:33;;;;;;;9.07;3.87;;;;;;;;;;5031075;28;20384;-58
2022/12/06 04:48:58;;;;;;;11.40;5.00;;;;;;;;;;5031307;28;20044;-58
2022/12/06 04:51:23;;;;;;;10.27;5.37;;;;;;;;;;5032334;28;20025;-58
2022/12/06 04:53:48;;;;;;;10.33;5.03;;;;;;;;;;5028719;28;20079;-58
2022/12/06 04:56:14;;;;;;;11.70;5.40;;;;;;;;;;5029527;28;20033;-58
2022/12/06 04:58:39;;;;;;;11.27;5.47;;;;;;;;;;5029249;28;20551;-58
2022/12/06 05:01:04;;;;;;;12.20;5.25;;;;;;;;;;5028860;28;20029;-58
2022/12/06 05:03:30;;;;;;;10.40;4.90;;;;;;;;;;5025910;28;20018;-58
2022/12/06 05:05:55;;;;;;;11.53;5.30;;;;;;;;;;5027239;28;20106;-57
2022/12/06 05:08:20;;;;;;;10.70;5.33;;;;;;;;;;5030759;28;20476;-58
2022/12/06 05:10:46;;;;;;;8.80;4.17;;;;;;;;;;5031562;28;20087;-56
2022/12/06 05:13:11;;;;;;;9.48;4.63;;;;;;;;;;5029416;28;20055;-56
2022/12/06 05:15:37;;;;;;;8.73;4.33;;;;;;;;;;5029811;28;20100;-57
2022/12/06 05:18:02;;;;;;;9.10;4.40;;;;;;;;;;5031175;28;20546;-57
2022/12/06 05:20:27;;;;;;;9.03;4.67;;;;;;;;;;5031261;28;20128;-57
2022/12/06 05:22:52;;;;;;;10.80;5.10;;;;;;;;;;5032719;28;20021;-57
2022/12/06 05:25:17;;;;;;;10.27;5.40;;;;;;;;;;5027166;28;20096;-58
2022/12/06 05:27:43;;;;;;;9.30;4.73;;;;;;;;;;5033344;28;20063;-58
2022/12/06 05:30:09;;;;;;;9.80;4.90;;;;;;;;;;5032592;28;20033;-58
2022/12/06 05:32:34;;;;;;;10.68;4.85;;;;;;;;;;5032469;28;20399;-58
2022/12/06 05:34:59;;;;;;;8.73;4.30;;;;;;;;;;5037406;28;20028;-58
2022/12/06 05:37:24;;;;;;;10.10;4.10;;;;;;;;;;5028253;28;20044;-63
2022/12/06 05:39:50;;;;;;;8.87;4.73;;;;;;;;;;5029206;28;20034;-63
2022/12/06 05:42:15;;;;;;;12.68;5.15;;;;;;;;;;5026057;28;20373;-64
2022/12/06 05:44:40;;;;;;;9.97;4.87;;;;;;;;;;5025626;28;20022;-64
2022/12/06 05:47:05;;;;;;;9.90;4.60;;;;;;;;;;5027154;28;20030;-63
2022/12/06 05:49:31;;;;;;;9.77;4.55;;;;;;;;;;5028047;28;20080;-63
2022/12/06 05:51:56;;;;;;;11.20;4.73;;;;;;;;;;5029328;28;20026;-63
2022/12/06 05:54:21;;;;;;;10.00;4.60;;;;;;;;;;5028772;28;20017;-63
2022/12/06 05:56:47;;;;;;;10.80;5.70;;;;;;;;;;5027582;28;20022;-64
2022/12/06 05:59:13;;;;;;;8.98;4.55;;;;;;;;;;5024728;28;20029;-65
2022/12/06 06:01:38;;;;;;;11.00;5.43;;;;;;;;;;5017446;28;20489;-62
2022/12/06 06:04:03;;;;;;;10.23;5.20;;;;;;;;;;5025018;28;20480;-63
2022/12/06 06:06:28;;;;;;;11.90;5.67;;;;;;;;;;5026015;28;20049;-63
2022/12/06 06:08:54;;;;;;;13.47;6.27;;;;;;;;;;5028321;28;20476;-64
2022/12/06 06:11:19;;;;;;;10.60;5.23;;;;;;;;;;5025114;28;20065;-63
2022/12/06 06:13:44;;;;;;;11.32;5.50;;;;;;;;;;5028007;28;20132;-63
2022/12/06 06:16:09;;;;;;;11.77;5.82;;;;;;;;;;5029076;28;20086;-63
2022/12/06 06:18:35;;;;;;;10.37;4.93;;;;;;;;;;5026058;28;20034;-63
2022/12/06 06:21:00;;;;;;;11.90;5.73;;;;;;;;;;5028167;28;20098;-65
2022/12/06 06:23:25;;;;;;;11.07;5.87;;;;;;;;;;5029217;28;20025;-64
2022/12/06 06:25:51;;;;;;;15.85;6.72;;;;;;;;;;5030626;28;20204;-64
2022/12/06 06:28:16;;;;;;;12.40;6.07;;;;;;;;;;5031609;28;20018;-62
2022/12/06 06:30:42;;;;;;;11.50;5.70;;;;;;;;;;5028120;28;20026;-63
2022/12/06 06:33:07;;;;;;;12.90;6.10;;;;;;;;;;5029757;28;20625;-64
2022/12/06 06:35:33;;;;;;;12.57;6.70;;;;;;;;;;5028334;28;20045;-64
2022/12/06 06:37:58;;;;;;;13.63;6.57;;;;;;;;;;5031630;28;20468;-65
2022/12/06 06:40:23;;;;;;;13.17;6.40;;;;;;;;;;5031670;28;20498;-65
2022/12/06 06:42:48;;;;;;;14.67;6.37;;;;;;;;;;5028342;28;20040;-64
2022/12/06 06:45:13;;;;;;;14.73;6.70;;;;;;;;;;5031675;28;20334;-64
2022/12/06 06:47:38;;;;;;;13.63;6.60;;;;;;;;;;5027740;28;20472;-65
2022/12/06 06:50:04;;;;;;;14.47;6.73;;;;;;;;;;5026193;28;20478;-62
2022/12/06 06:52:30;;;;;;;12.00;6.35;;;;;;;;;;5030489;28;20067;-63
2022/12/06 06:54:55;;;;;;;11.60;6.03;;;;;;;;;;5026630;28;20021;-63
2022/12/06 06:57:20;;;;;;;13.83;6.77;;;;;;;;;;5031416;28;20120;-64
2022/12/06 06:59:45;;;;;;;13.90;6.33;;;;;;;;;;5031248;28;20075;-64
2022/12/06 07:02:11;;;;;;;12.30;6.20;;;;;;;;;;5023966;28;20091;-62
2022/12/06 07:04:37;;;;;;;11.80;6.60;;;;;;;;;;5026970;28;20013;-63
2022/12/06 07:07:02;;;;;;;12.25;5.47;;;;;;;;;;5030593;28;20044;-63
2022/12/06 07:09:27;;;;;;;10.67;5.37;;;;;;;;;;5030453;28;20495;-63
2022/12/06 07:11:52;;;;;;;12.93;5.93;;;;;;;;;;5030317;28;20045;-63
2022/12/06 07:14:17;;;;;;;12.63;5.97;;;;;;;;;;5026854;28;20030;-63
2022/12/06 07:16:42;;;;;;;12.33;5.83;;;;;;;;;;5030623;28;20075;-63
2022/12/06 07:19:08;;;;;;;12.47;6.33;;;;;;;;;;5030387;28;20021;-64
2022/12/06 07:21:33;;;;;;;13.60;5.40;;;;;;;;;;5029473;28;20151;-63
2022/12/06 07:23:59;;;;;;;11.88;5.82;;;;;;;;;;5039834;28;20103;-64
2022/12/06 07:26:24;;;;;;;12.02;5.68;;;;;;;;;;5028704;28;20024;-64
2022/12/06 07:28:50;;;;;;;10.60;4.80;;;;;;;;;;5025153;28;20392;-64
2022/12/06 07:31:15;;;;;;;10.98;5.28;;;;;;;;;;5024440;28;20032;-65
2022/12/06 07:33:43;;;;;;;10.05;4.50;;;;;;;;;;5017640;28;20044;-64
2022/12/06 07:36:09;;;;;;;11.45;5.10;;;;;;;;;;5019228;28;20026;-58
2022/12/06 07:38:35;;;;;;;11.57;5.30;;;;;;;;;;5030191;28;20028;-58
2022/12/06 07:41:00;;;;;;;12.10;5.20;;;;;;;;;;5029994;28;20017;-59
2022/12/06 07:46:10;;;;;;;12.10;5.20;;;;;;;;;;5025999;28;20048;-59
2022/12/06 07:48:35;;;;;;;14.02;6.22;;;;;;;;;;5030338;28;20480;-58
2022/12/06 07:51:03;;;;;;;11.90;5.40;;;;;;;;;;5029273;28;20448;-57
2022/12/06 07:53:28;;;;;;;11.52;5.93;;;;;;;;;;5030294;28;20040;-57
2022/12/06 07:55:53;;;;;;;12.13;6.10;;;;;;;;;;5029659;28;20517;-58
2022/12/06 07:58:18;;;;;;;12.00;6.00;;;;;;;;;;5027262;28;20022;-58
2022/12/06 08:00:43;;;;;;;12.17;6.37;;;;;;;;;;5028486;28;20030;-58
2022/12/06 08:03:09;;;;;;;12.80;5.70;;;;;;;;;;5028475;28;20408;-58
2022/12/06 08:05:34;;;;;;;10.38;5.38;;;;;;;;;;5029269;28;20032;-58
2022/12/06 08:07:59;;;;;;;9.90;5.30;;;;;;;;;;5028032;28;20476;-59
2022/12/06 08:10:25;;;;;;;9.20;4.90;;;;;;;;;;5030142;28;20342;-58
2022/12/06 08:12:50;;;;;;;12.27;5.50;;;;;;;;;;5028188;28;20054;-58
2022/12/06 08:15:15;;;;;;;10.03;5.23;;;;;;;;;;5030000;28;20603;-57
2022/12/06 08:17:40;;;;;;;9.10;4.93;;;;;;;;;;5026036;28;20112;-57
2022/12/06 08:20:07;;;;;;;11.10;5.50;;;;;;;;;;5029804;28;20388;-58
2022/12/06 08:22:32;;;;;;;13.40;6.57;;;;;;;;;;5028954;28;20071;-58
2022/12/06 08:24:58;;;;;;;10.25;5.30;;;;;;;;;;5029913;28;20419;-58
2022/12/06 08:27:23;;;;;;;10.83;5.63;;;;;;;;;;5030258;28;20037;-58
2022/12/06 08:29:48;;;;;;;9.47;5.00;;;;;;;;;;5027026;28;20029;-57
2022/12/06 08:32:13;;;;;;;12.07;6.10;;;;;;;;;;5027594;28;20365;-58
2022/12/06 08:34:38;;;;;;;10.43;5.33;;;;;;;;;;5029398;28;20057;-57
2022/12/06 08:37:03;;;;;;;10.07;5.63;;;;;;;;;;5029200;28;20104;-58
2022/12/06 08:39:29;;;;;;;10.23;5.13;;;;;;;;;;5027191;28;20018;-58
2022/12/06 08:41:54;;;;;;;12.77;6.10;;;;;;;;;;5033560;28;20143;-58
2022/12/06 08:44:19;;;;;;;10.47;5.40;;;;;;;;;;5032197;28;20476;-58
2022/12/06 08:46:45;;;;;;;8.90;4.53;;;;;;;;;;5034231;28;20068;-58
2022/12/06 08:49:10;;;;;;;11.88;6.55;;;;;;;;;;5032024;28;20080;-58
2022/12/06 08:51:36;;;;;;;11.40;5.53;;;;;;;;;;5022076;28;20033;-58
2022/12/06 08:54:01;;;;;;;11.88;6.45;;;;;;;;;;5033692;28;20025;-57
2022/12/06 08:56:27;;;;;;;13.00;5.03;;;;;;;;;;5033968;28;20435;-58
2022/12/06 08:58:53;;;;;;;10.73;5.38;;;;;;;;;;5033695;28;20692;-57
2022/12/06 09:01:19;;;;;;;12.20;5.05;;;;;;;;;;5030042;28;20412;-58
2022/12/06 09:03:44;;;;;;;12.98;6.80;;;;;;;;;;5031954;28;20037;-58
2022/12/06 09:06:10;;;;;;;10.47;5.43;;;;;;;;;;5033455;28;20389;-57
2022/12/06 09:08:35;;;;;;;11.32;5.80;;;;;;;;;;5032068;28;20021;-58
2022/12/06 09:11:01;;;;;;;13.73;6.28;;;;;;;;;;5030994;28;20076;-57
2022/12/06 09:13:26;;;;;;;13.10;6.63;;;;;;;;;;5033182;28;20046;-57
2022/12/06 09:15:51;;;;;;;14.23;6.20;;;;;;;;;;5031868;28;20482;-57
2022/12/06 09:18:16;;;;;;;11.03;6.23;;;;;;;;;;5033051;28;20030;-58
2022/12/06 09:20:41;;;;;;;13.77;6.53;;;;;;;;;;5031335;28;20033;-58
2022/12/06 09:23:07;;;;;;;10.88;5.55;;;;;;;;;;5029897;28;20115;-58
2022/12/06 09:25:32;;;;;;;13.20;5.53;;;;;;;;;;5033256;28;20053;-58
2022/12/06 09:27:57;;;;;;;11.93;6.33;;;;;;;;;;5033215;28;20021;-58
2022/12/06 09:30:23;;;;;;;11.27;6.25;;;;;;;;;;5029076;28;20044;-58
2022/12/06 09:32:48;;;;;;;12.80;6.27;;;;;;;;;;5031708;28;20025;-58
2022/12/06 09:35:13;;;;;;;12.30;6.50;;;;;;;;;;5032932;28;20593;-59
2022/12/06 09:37:38;;;;;;;14.00;7.47;;;;;;;;;;5032240;28;20108;-58
2022/12/06 09:40:10;;;;;;;12.40;6.97;;;;;;;;;;5030074;28;20476;-58
2022/12/06 09:42:54;;;;;;;12.27;6.28;;;;;;;;;;5020544;28;20033;-58
2022/12/06 09:45:38;;;;;;;14.13;6.45;;;;;;;;;;5032900;28;20025;-59
2022/12/06 09:48:09;;;;;;;13.57;7.07;;;;;;;;;;5031548;28;20063;-58
2022/12/06 09:50:46;;;;;;;10.32;5.95;;;;;;;;;;5031888;28;20017;-59
2022/12/06 09:53:11;;;;;;;14.85;7.80;;;;;;;;;;5027598;28;20124;-59
2022/12/06 09:55:50;;;;;;;12.97;6.60;;;;;;;;;;5032658;28;20097;-59
2022/12/06 09:58:26;;;;;;;11.68;5.75;;;;;;;;;;5032563;28;20080;-59
2022/12/06 10:00:57;;;;;;;11.95;5.75;;;;;;;;;;5032488;28;20026;-57
2022/12/06 10:03:31;;;;;;;10.43;5.85;;;;;;;;;;5028698;28;20030;-57
2022/12/06 10:06:01;;;;;;;10.68;6.07;;;;;;;;;;5032090;28;20030;-57
2022/12/06 10:08:26;;;;;;;10.25;5.53;;;;;;;;;;5031043;28;20033;-58
2022/12/06 10:10:56;;;;;;;10.93;5.90;;;;;;;;;;5030842;28;20095;-58
2022/12/06 10:13:41;;;;;;;10.93;6.20;;;;;;;;;;5030571;28;20049;-58
2022/12/06 10:16:22;;;;;;;10.13;5.63;;;;;;;;;;5032360;28;20522;-58
2022/12/06 10:18:47;;;;;;;11.02;5.80;;;;;;;;;;5031312;28;20029;-58
2022/12/06 10:21:21;;;;;;;11.07;5.30;;;;;;;;;;5032399;28;20484;-58
2022/12/06 10:24:10;;;;;;;11.95;6.38;;;;;;;;;;5029095;28;20021;-58
2022/12/06 10:26:51;;;;;;;12.75;6.50;;;;;;;;;;5032412;28;20021;-58
2022/12/06 10:29:18;;;;;;;10.65;5.55;;;;;;;;;;5031032;28;20021;-58
2022/12/06 10:32:01;;;;;;;9.73;4.90;;;;;;;;;;5031028;28;20052;-58
2022/12/06 10:34:35;;;;;;;10.45;5.50;;;;;;;;;;5029612;28;20035;-58
2022/12/06 10:37:13;;;;;;;11.52;5.60;;;;;;;;;;5028894;28;20032;-58
2022/12/06 10:39:56;;;;;;;11.85;6.32;;;;;;;;;;5031277;28;20075;-58
2022/12/06 10:42:27;;;;;;;10.68;5.97;;;;;;;;;;5031593;28;20060;-59
2022/12/06 10:44:56;;;;;;;11.43;5.53;;;;;;;;;;5032032;28;20024;-58
2022/12/06 10:47:27;;;;;;;11.02;5.93;;;;;;;;;;5029433;28;20018;-58
2022/12/06 10:49:58;;;;;;;11.05;5.57;;;;;;;;;;5030566;28;20026;-58
2022/12/06 10:52:28;;;;;;;10.27;5.43;;;;;;;;;;5013505;28;20050;-61
2022/12/06 10:54:53;;;;;;;10.27;5.50;;;;;;;;;;5031385;28;20017;-58
2022/12/06 10:57:35;;;;;;;11.90;5.63;;;;;;;;;;5031197;28;20819;-58
2022/12/06 11:00:03;;;;;;;10.77;5.78;;;;;;;;;;5031573;28;20431;-58
2022/12/06 11:02:37;;;;;;;13.13;6.38;;;;;;;;;;5029689;28;20053;-58
2022/12/06 11:05:05;;;;;;;10.02;5.25;;;;;;;;;;5030462;28;20358;-58
2022/12/06 11:07:35;;;;;;;11.77;5.97;;;;;;;;;;5029908;28;20108;-58
2022/12/06 11:10:02;;;;;;;11.02;5.65;;;;;;;;;;5028594;28;20113;-58
2022/12/06 11:12:30;;;;;;;10.65;6.13;;;;;;;;;;5030707;28;20057;-58
2022/12/06 11:15:15;;;;;;;8.88;5.13;;;;;;;;;;5031403;28;20078;-58
2022/12/06 11:17:42;;;;;;;10.23;5.05;;;;;;;;;;5026061;28;20060;-57
2022/12/06 11:20:10;;;;;;;9.95;4.57;;;;;;;;;;5028926;28;20022;-58
2022/12/06 11:22:49;;;;;;;9.35;4.70;;;;;;;;;;5030694;28;20465;-57
2022/12/06 11:25:20;;;;;;;9.80;5.20;;;;;;;;;;5029131;28;20025;-59
2022/12/06 11:27:48;;;;;;;10.82;5.65;;;;;;;;;;5031008;28;20121;-58
2022/12/06 11:30:18;;;;;;;9.63;5.10;;;;;;;;;;5028437;28;20446;-58
2022/12/06 11:32:44;;;;;;;11.05;5.78;;;;;;;;;;5030712;28;20092;-58
2022/12/06 11:35:14;;;;;;;10.20;5.40;;;;;;;;;;5029035;28;20029;-59
2022/12/06 11:37:39;;;;;;;10.50;5.78;;;;;;;;;;5030731;28;20030;-57
2022/12/06 11:40:06;;;;;;;10.80;5.90;;;;;;;;;;5027262;28;20535;-58
2022/12/06 11:42:31;;;;;;;9.88;5.53;;;;;;;;;;5030058;28;20018;-58
2022/12/06 11:44:59;;;;;;;10.93;5.13;;;;;;;;;;5030663;28;20044;-58
2022/12/06 11:47:25;;;;;;;10.77;5.80;;;;;;;;;;5028946;28;20056;-58
2022/12/06 11:49:52;;;;;;;10.48;5.50;;;;;;;;;;5031014;28;20417;-58
2022/12/06 11:52:17;;;;;;;;;;;;;;;;;;5028182;28;20028;-58
2022/12/06 11:54:45;;;;;;;10.77;5.00;;;;;;;;;;5029512;28;19912;-58
2022/12/06 11:57:20;;;;;;;12.27;5.93;;;;;;;;;;5030395;28;20024;-58
2022/12/06 12:00:03;;;;;;;10.07;5.13;;;;;;;;;;5029846;28;20025;-58
2022/12/06 12:02:30;;;;;;;13.88;5.35;;;;;;;;;;5027854;28;20048;-58
2022/12/06 12:05:06;;;;;;;9.18;4.93;;;;;;;;;;5030460;28;20494;-58
2022/12/06 12:07:33;;;;;;;10.20;5.43;;;;;;;;;;5030201;28;20021;-58
2022/12/06 12:10:00;;;;;;;10.23;5.30;;;;;;;;;;5028757;28;20026;-58
2022/12/06 12:13:42;;;;;;;10.60;5.07;;;;;;;;;;5025680;28;20053;-58
2022/12/06 12:15:20;;;;;;;9.65;4.80;;;;;;;;;;5029828;28;20160;-59
2022/12/06 12:17:46;;;;;;;11.07;5.18;;;;;;;;;;5030202;28;20101;-57
2022/12/06 12:20:20;;;;;;;9.38;4.53;;;;;;;;;;5028960;28;20522;-58
2022/12/06 12:22:45;;;;;;;12.35;6.05;;;;;;;;;;5027750;28;20029;-58
2022/12/06 12:25:24;;;;;;;10.32;5.05;;;;;;;;;;5029149;28;20109;-59
2022/12/06 12:27:59;;;;;;;12.35;5.32;;;;;;;;;;5030128;28;20547;-59
2022/12/06 12:30:30;;;;;;;12.30;5.95;;;;;;;;;;5029430;28;20030;-59
2022/12/06 12:33:04;;;;;;;11.50;5.00;;;;;;;;;;5026260;28;20504;-59
2022/12/06 12:35:29;;;;;;;10.18;4.88;;;;;;;;;;5029913;28;20394;-58
2022/12/06 12:37:57;;;;;;;11.65;5.32;;;;;;;;;;5030283;28;20057;-57
2022/12/06 12:40:24;;;;;;;10.18;4.70;;;;;;;;;;5026958;28;20099;-58
2022/12/06 12:42:56;;;;;;;9.32;4.80;;;;;;;;;;5029884;28;20018;-58
2022/12/06 12:45:22;;;;;;;10.05;4.97;;;;;;;;;;5029145;28;20473;-57
2022/12/06 12:48:00;;;;;;;9.48;4.70;;;;;;;;;;5030038;28;20036;-59
2022/12/06 12:50:26;;;;;;;10.15;5.28;;;;;;;;;;5027115;28;20163;-58
2022/12/06 12:52:52;;;;;;;9.68;5.00;;;;;;;;;;5026678;28;20029;-58
2022/12/06 12:55:19;;;;;;;11.60;5.60;;;;;;;;;;5025337;28;20084;-58
2022/12/06 12:57:46;;;;;;;9.60;5.25;;;;;;;;;;5029551;28;20021;-58
2022/12/06 13:00:19;;;;;;;10.05;5.00;;;;;;;;;;5029930;28;20122;-57
2022/12/06 13:02:46;;;;;;;10.50;5.10;;;;;;;;;;5029634;28;20021;-57
2022/12/06 13:05:20;;;;;;;11.07;5.25;;;;;;;;;;5023897;28;20034;-58
2022/12/06 13:07:46;;;;;;;9.75;4.70;;;;;;;;;;5029919;28;20091;-58
2022/12/06 13:10:20;;;;;;;9.45;5.10;;;;;;;;;;5028543;28;20030;-58
2022/12/06 13:12:57;;;;;;;11.68;5.82;;;;;;;;;;5029414;28;20068;-58
2022/12/06 13:15:32;;;;;;;11.43;5.53;;;;;;;;;;5026234;28;20029;-57
2022/12/06 13:17:59;;;;;;;12.10;5.70;;;;;;;;;;5029535;28;20026;-58
2022/12/06 13:20:26;;;;;;;10.82;5.25;;;;;;;;;;5029402;28;20025;-57
2022/12/06 13:22:56;;;;;;;13.00;6.45;;;;;;;;;;5029446;28;20022;-58
2022/12/06 13:25:22;;;;;;;10.50;5.07;;;;;;;;;;5023024;28;20018;-58
2022/12/06 13:27:50;;;;;;;10.20;4.82;;;;;;;;;;5031367;28;20029;-58
2022/12/06 13:30:17;;;;;;;11.48;5.70;;;;;;;;;;5019759;28;20046;-58
2022/12/06 13:32:59;;;;;;;12.98;6.22;;;;;;;;;;5032902;28;20029;-58
2022/12/06 13:35:29;;;;;;;11.38;5.35;;;;;;;;;;5020591;28;20032;-58
2022/12/06 13:37:56;;;;;;;11.75;5.53;;;;;;;;;;5028892;28;20021;-59
2022/12/06 13:40:31;;;;;;;12.23;6.60;;;;;;;;;;5030019;28;20033;-58
2022/12/06 13:42:56;;;;;;;11.55;5.90;;;;;;;;;;5032670;28;20064;-58
2022/12/06 13:45:27;;;;;;;11.67;6.07;;;;;;;;;;5031950;28;20025;-58
2022/12/06 13:47:52;;;;;;;12.15;6.25;;;;;;;;;;5032973;28;20116;-58
2022/12/06 13:50:17;;;;;;;13.67;6.37;;;;;;;;;;5029670;28;20060;-57
2022/12/06 13:52:42;;;;;;;13.37;6.37;;;;;;;;;;5030674;28;20029;-57
2022/12/06 13:55:23;;;;;;;12.97;6.80;;;;;;;;;;5030395;28;20029;-57
2022/12/06 13:58:08;;;;;;;11.55;6.18;;;;;;;;;;5019920;28;20472;-58
2022/12/06 14:00:39;;;;;;;11.77;6.32;;;;;;;;;;5028332;28;20025;-57
2022/12/06 14:03:20;;;;;;;12.70;6.28;;;;;;;;;;5027808;28;20112;-59
2022/12/06 14:05:57;;;;;;;14.20;6.55;;;;;;;;;;5032435;28;20021;-58
2022/12/06 14:08:36;;;;;;;14.95;6.65;;;;;;;;;;5032048;28;20033;-59
2022/12/06 14:11:20;;;;;;;12.52;6.53;;;;;;;;;;5030741;28;20029;-58
2022/12/06 14:13:58;;;;;;;13.38;6.15;;;;;;;;;;5028727;28;20046;-59
2022/12/06 14:16:27;;;;;;;13.75;6.65;;;;;;;;;;5029054;28;20013;-59
2022/12/06 14:18:52;;;;;;;14.60;6.55;;;;;;;;;;5032197;28;20491;-58
2022/12/06 14:21:27;;;;;;;15.77;7.15;;;;;;;;;;5030098;28;20100;-58
2022/12/06 14:23:52;;;;;;;13.05;6.45;;;;;;;;;;5028433;28;20357;-58
2022/12/06 14:26:20;;;;;;;14.73;7.87;;;;;;;;;;5027858;28;20029;-58
2022/12/06 14:28:45;;;;;;;11.07;5.95;;;;;;;;;;5030024;28;20496;-58
2022/12/06 14:31:31;;;;;;;12.57;6.00;;;;;;;;;;5029592;28;20021;-58
2022/12/06 14:33:56;;;;;;;12.20;6.70;;;;;;;;;;5024165;28;20045;-58
2022/12/06 14:36:32;;;;;;;12.03;6.77;;;;;;;;;;5020406;28;20052;-58
2022/12/06 14:38:59;;;;;;;11.85;6.22;;;;;;;;;;5031218;28;20037;-58
2022/12/06 14:44:34;;;;;;;12.13;6.40;;;;;;;;;;5031776;28;20040;-58
2022/12/06 14:46:59;;;;;;;10.80;5.40;;;;;;;;;;5031744;28;20389;-58
2022/12/06 14:52:24;;;;;;;12.45;6.32;;;;;;;;;;5030262;28;20037;-58
2022/12/06 14:54:50;;;;;;;10.40;5.93;;;;;;;;;;5031508;28;20116;-58
2022/12/06 14:57:21;;;;;;;10.25;5.97;;;;;;;;;;5030882;28;20032;-58
2022/12/06 14:59:51;;;;;;;12.20;5.43;;;;;;;;;;5031465;28;20287;-58
2022/12/06 15:02:24;;;;;;;11.73;6.22;;;;;;;;;;5031086;28;20021;-58
2022/12/06 15:04:49;;;;;;;;;;;;;;;;;;5030066;28;20019;-58
2022/12/06 15:07:31;;;;;;;11.00;6.07;;;;;;;;;;5029933;28;19909;-59
2022/12/06 15:10:06;;;;;;;12.57;6.15;;;;;;;;;;5028756;28;20022;-58